This is the latest recevied weather packets stored in our database for station/object WE8M. If no packets are shown the sender has not sent any weather packets the latest 10 day(s).
| Time | Temp. | Humidity | Pressure | Rain* | Wind** | Luminosity | Snow |
|---|---|---|---|---|---|---|---|
| 1778030052 | 15° C | 87% | 1007.3 hPa | 0 mm | - | - | - |
| 1778029447 | 15° C | 88% | 1007.8 hPa | 0 mm | - | - | - |
| 1778029144 | 15° C | 88% | 1007.8 hPa | 0 mm | - | - | - |
| 1778027627 | 15° C | 88% | 1007.7 hPa | 0 mm | - | - | - |
| 1778024293 | 15.56° C | 87% | 1008 hPa | 0 mm | - | - | - |
| 1778023991 | 15.56° C | 88% | 1007.8 hPa | 0 mm | - | - | - |
| 1778023688 | 15.56° C | 88% | 1007.7 hPa | 0 mm | - | - | - |
| 1778020658 | 16.11° C | 90% | 1009.2 hPa | 1.27 mm | - | - | - |
| 1778020355 | 16.11° C | 91% | 1009.2 hPa | 1.27 mm | - | - | - |
| 1778020051 | 16.11° C | 91% | 1009.1 hPa | 0 mm | - | - | - |
| 1778019747 | 16.11° C | 92% | 1009.2 hPa | 0 mm | - | - | - |
| 1778019444 | 16.11° C | 92% | 1009.2 hPa | 0 mm | - | - | - |
| 1778018838 | 16.11° C | 92% | 1009.2 hPa | 1.78 mm | - | - | - |
| 1778018536 | 16.11° C | 91% | 1009.4 hPa | 1.78 mm | - | - | - |
| 1778016416 | 18.33° C | 70% | 1008.9 hPa | 0 mm | - | - | - |
| 1778016114 | 18.89° C | 68% | 1009 hPa | 0 mm | - | - | - |
| 1778014901 | 20° C | 61% | 1008.7 hPa | 0 mm | - | - | - |
| 1778013387 | 20.56° C | 59% | 1008.5 hPa | 0 mm | - | - | - |
| 1778013085 | 20.56° C | 59% | 1008.5 hPa | 0 mm | - | - | - |
| 1778012780 | 20.56° C | 60% | 1008.6 hPa | 0 mm | - | - | - |
| 1778012476 | 20.56° C | 59% | 1008.5 hPa | 0 mm | - | - | - |
| 1778011872 | 20.56° C | 58% | 1008.8 hPa | 0 mm | - | - | - |
| 1778011569 | 21.11° C | 60% | 1008.6 hPa | 0 mm | - | - | - |
| 1778010961 | 20.56° C | 60% | 1008.7 hPa | 0 mm | - | - | - |
| 1778009749 | 20.56° C | 61% | 1009 hPa | 0 mm | - | - | - |
* Rain latest hour (hover to see other rain measurements)
** Current wind speed in m/s (hover to see current wind gust speed)